Time;durP1;ratioP1;P1;durP2;ratioP2;P2;SDS_P1;SDS_P2;PMS_P1;PMS_P2;Temp;Humidity;BMP_temperature;BMP_pressure;BME280_temperature;BME280_humidity;BME280_pressure;Samples;Min_cycle;Max_cycle;Signal;HPM_P1;HPM_P2
2023/11/09 00:01:33;;;;;;;16.67;7.25;;;;;;;;;;6100285;23;20094;-95
2023/11/09 00:04:08;;;;;;;13.93;7.03;;;;;;;;;;6198180;22;20103;-95
2023/11/09 00:06:34;;;;;;;12.10;6.47;;;;;;;;;;6253595;22;20016;-96
2023/11/09 00:09:00;;;;;;;11.77;6.85;;;;;;;;;;6253312;22;20087;-95
2023/11/09 00:11:35;;;;;;;15.77;7.03;;;;;;;;;;6253511;22;20007;-96
2023/11/09 00:14:08;;;;;;;16.02;7.75;;;;;;;;;;6264325;22;20015;-95
2023/11/09 00:16:34;;;;;;;27.70;11.77;;;;;;;;;;6279889;22;20043;-95
2023/11/09 00:19:00;;;;;;;40.03;17.20;;;;;;;;;;6290927;22;20004;-95
2023/11/09 00:21:37;;;;;;;;;;;;;;;;;;;;;
2023/11/09 00:24:04;;;;;;;45.42;20.83;;;;;;;;;;6281005;22;20076;-95
2023/11/09 00:26:31;;;;;;;45.03;21.17;;;;;;;;;;6278216;22;20035;-96
2023/11/09 00:28:57;;;;;;;39.78;17.70;;;;;;;;;;6278046;22;20095;-95
2023/11/09 00:31:26;;;;;;;57.63;25.52;;;;;;;;;;6278290;22;20078;-95
2023/11/09 00:33:52;;;;;;;54.92;25.95;;;;;;;;;;6278074;22;20007;-96
2023/11/09 00:36:22;;;;;;;68.82;29.90;;;;;;;;;;6277947;22;20082;-96
2023/11/09 00:38:49;;;;;;;65.72;26.95;;;;;;;;;;6278573;22;20083;-93
2023/11/09 00:41:21;;;;;;;56.30;24.63;;;;;;;;;;6278653;22;20322;-95
2023/11/09 00:43:47;;;;;;;45.95;20.80;;;;;;;;;;6278979;22;20003;-96
2023/11/09 00:46:13;;;;;;;44.65;20.60;;;;;;;;;;6277892;22;20007;-96
2023/11/09 00:48:39;;;;;;;52.05;22.98;;;;;;;;;;6277647;22;20000;-95
2023/11/09 00:51:05;;;;;;;47.40;23.08;;;;;;;;;;6277749;22;20015;-95
2023/11/09 00:53:32;;;;;;;41.22;20.08;;;;;;;;;;6277993;22;20004;-96
2023/11/09 00:56:07;;;;;;;50.17;23.35;;;;;;;;;;6278220;22;20026;-96
2023/11/09 00:58:33;;;;;;;41.95;18.83;;;;;;;;;;6278041;22;20056;-95
2023/11/09 01:00:59;;;;;;;28.05;14.57;;;;;;;;;;6278059;22;20008;-95
2023/11/09 01:03:26;;;;;;;46.47;20.50;;;;;;;;;;6277904;22;20012;-95
2023/11/09 01:05:54;;;;;;;48.15;21.58;;;;;;;;;;6277007;22;20125;-95
2023/11/09 01:08:21;;;;;;;46.85;20.55;;;;;;;;;;6277870;22;20329;-94
2023/11/09 01:10:48;;;;;;;43.22;20.10;;;;;;;;;;6277457;22;20361;-95
2023/11/09 01:13:14;;;;;;;47.03;20.95;;;;;;;;;;6277768;22;20039;-95
2023/11/09 01:15:40;;;;;;;45.50;19.27;;;;;;;;;;6278221;22;20003;-95
2023/11/09 01:18:09;;;;;;;33.88;17.58;;;;;;;;;;6286720;22;19988;-94
2023/11/09 01:20:36;;;;;;;43.78;19.65;;;;;;;;;;6279882;22;20333;-95
2023/11/09 01:23:02;;;;;;;40.65;19.17;;;;;;;;;;6277593;22;20004;-96
2023/11/09 01:25:29;;;;;;;43.28;21.38;;;;;;;;;;6278307;22;20417;-96
2023/11/09 01:27:57;;;;;;;42.17;21.13;;;;;;;;;;6278199;22;20012;-96
2023/11/09 01:30:25;;;;;;;44.20;20.38;;;;;;;;;;6277811;22;20004;-95
2023/11/09 01:32:51;;;;;;;45.75;20.13;;;;;;;;;;6277982;22;20491;-96
2023/11/09 01:35:27;;;;;;;;;;;;;;;;;;;;;
2023/11/09 01:37:54;;;;;;;33.88;16.15;;;;;;;;;;6280477;22;20116;-96
2023/11/09 01:40:23;;;;;;;41.08;17.27;;;;;;;;;;6278263;22;20447;-96
2023/11/09 01:42:56;;;;;;;32.28;15.63;;;;;;;;;;6278275;22;20011;-96
2023/11/09 01:45:26;;;;;;;39.63;16.50;;;;;;;;;;6278217;22;20445;-96
2023/11/09 01:48:21;;;;;;;30.67;14.38;;;;;;;;;;6278359;22;20011;-96
2023/11/09 01:50:47;;;;;;;31.85;14.43;;;;;;;;;;6212676;22;20010;-96
2023/11/09 01:53:59;;;;;;;32.28;14.13;;;;;;;;;;6277796;22;20004;-96
2023/11/09 01:56:10;;;;;;;28.08;12.95;;;;;;;;;;6285275;22;20023;-96
2023/11/09 01:58:37;;;;;;;31.35;11.95;;;;;;;;;;6304598;22;19984;-96
2023/11/09 02:01:04;;;;;;;26.35;13.00;;;;;;;;;;6280631;22;20015;-95
2023/11/09 02:03:30;;;;;;;25.92;12.48;;;;;;;;;;6279190;22;20003;-96
2023/11/09 02:06:06;;;;;;;;;;;;;;;;;;;;;
2023/11/09 02:08:40;;;;;;;23.83;11.43;;;;;;;;;;6280243;22;20082;-96
2023/11/09 02:11:17;;;;;;;22.70;10.45;;;;;;;;;;6278036;22;20003;-96
2023/11/09 02:13:43;;;;;;;23.55;10.57;;;;;;;;;;6248664;22;20057;-96
2023/11/09 02:16:15;;;;;;;18.67;9.60;;;;;;;;;;6280787;22;20094;-95
2023/11/09 02:18:42;;;;;;;16.65;8.95;;;;;;;;;;6269323;22;20082;-96
2023/11/09 02:21:15;;;;;;;19.35;10.25;;;;;;;;;;6252623;22;20011;-96
2023/11/09 02:23:46;;;;;;;26.20;11.63;;;;;;;;;;6257790;22;20007;-96
2023/11/09 02:26:20;;;;;;;45.05;21.60;;;;;;;;;;6278420;22;20003;-96
2023/11/09 02:28:47;;;;;;;40.20;21.60;;;;;;;;;;6279963;22;20004;-96
2023/11/09 02:31:21;;;;;;;36.78;19.23;;;;;;;;;;6277907;22;20000;-96
2023/11/09 02:33:47;;;;;;;48.55;22.92;;;;;;;;;;6278119;22;20086;-96
2023/11/09 02:36:17;;;;;;;47.70;22.85;;;;;;;;;;6278567;22;20078;-96
2023/11/09 02:38:43;;;;;;;37.78;14.40;;;;;;;;;;6278571;22;20087;-96
2023/11/09 02:41:11;;;;;;;40.15;18.90;;;;;;;;;;6278681;22;20066;-95
2023/11/09 02:43:40;;;;;;;35.72;17.60;;;;;;;;;;6278168;22;20004;-96
2023/11/09 02:46:13;;;;;;;32.03;17.23;;;;;;;;;;6278299;22;20007;-95
2023/11/09 02:48:40;;;;;;;29.00;13.65;;;;;;;;;;6278187;22;20039;-95
2023/11/09 02:51:10;;;;;;;19.90;11.23;;;;;;;;;;6277756;22;20004;-95
2023/11/09 02:53:37;;;;;;;33.92;17.40;;;;;;;;;;6278117;22;20329;-96
2023/11/09 02:56:09;;;;;;;36.92;17.73;;;;;;;;;;6277722;22;20448;-95
2023/11/09 02:58:35;;;;;;;34.47;17.80;;;;;;;;;;6278931;22;20008;-96
2023/11/09 03:01:01;;;;;;;41.40;22.63;;;;;;;;;;6279998;22;20014;-96
2023/11/09 03:03:28;;;;;;;70.75;33.63;;;;;;;;;;6278054;22;20008;-96
2023/11/09 03:06:00;;;;;;;45.03;21.75;;;;;;;;;;6279315;22;20081;-95
2023/11/09 03:08:28;;;;;;;46.42;21.73;;;;;;;;;;6283719;22;20417;-95
2023/11/09 03:11:05;;;;;;;29.33;15.32;;;;;;;;;;6280692;22;20004;-96
2023/11/09 03:13:39;;;;;;;22.30;11.93;;;;;;;;;;6279731;22;20004;-96
2023/11/09 03:16:06;;;;;;;33.42;18.60;;;;;;;;;;6281066;22;20015;-95
2023/11/09 03:18:32;;;;;;;37.70;19.15;;;;;;;;;;6297016;22;20008;-96
2023/11/09 03:20:59;;;;;;;48.35;18.90;;;;;;;;;;6278884;22;20031;-95
2023/11/09 03:23:39;;;;;;;;;;;;;;;;;;;;;
2023/11/09 03:26:28;;;;;;;40.80;19.35;;;;;;;;;;6282260;22;20091;-95
2023/11/09 03:28:57;;;;;;;36.85;18.48;;;;;;;;;;6284103;22;20380;-96
2023/11/09 03:31:26;;;;;;;33.13;15.18;;;;;;;;;;6283138;22;20004;-96
2023/11/09 03:33:52;;;;;;;29.35;15.15;;;;;;;;;;6282818;22;20003;-96
2023/11/09 03:36:18;;;;;;;25.42;13.65;;;;;;;;;;6289480;22;20015;-96
2023/11/09 03:39:01;;;;;;;29.55;13.82;;;;;;;;;;6304408;22;20004;-94
2023/11/09 03:41:29;;;;;;;24.48;12.15;;;;;;;;;;6240577;22;20333;-95
2023/11/09 03:43:56;;;;;;;22.65;12.35;;;;;;;;;;6253939;22;20003;-96
2023/11/09 03:46:23;;;;;;;26.35;12.90;;;;;;;;;;6253986;22;20101;-95
2023/11/09 03:48:50;;;;;;;23.52;12.02;;;;;;;;;;6253783;22;20011;-96
2023/11/09 03:51:19;;;;;;;22.15;11.45;;;;;;;;;;6253778;22;20000;-96
2023/11/09 03:53:45;;;;;;;31.48;13.63;;;;;;;;;;6253226;22;20046;-95
2023/11/09 03:56:11;;;;;;;35.97;16.92;;;;;;;;;;6253367;22;20011;-96
2023/11/09 03:58:45;;;;;;;33.33;15.27;;;;;;;;;;6253511;22;20011;-96
2023/11/09 04:01:11;;;;;;;26.10;12.88;;;;;;;;;;6253450;22;20085;-96
2023/11/09 04:03:37;;;;;;;27.48;13.50;;;;;;;;;;6253422;22;20333;-95
2023/11/09 04:06:04;;;;;;;31.27;15.40;;;;;;;;;;6253444;22;20061;-96
2023/11/09 04:08:48;;;;;;;30.25;15.23;;;;;;;;;;6253538;22;20000;-95
2023/11/09 04:11:14;;;;;;;26.20;13.93;;;;;;;;;;6253014;22;20000;-96
2023/11/09 04:13:49;;;;;;;26.75;14.00;;;;;;;;;;6258483;22;20030;-95
2023/11/09 04:16:27;;;;;;;25.95;11.98;;;;;;;;;;6255757;22;19999;-96
2023/11/09 04:18:54;;;;;;;27.10;13.55;;;;;;;;;;6253337;22;20011;-96
2023/11/09 04:21:44;;;;;;;28.70;13.10;;;;;;;;;;6253304;22;20433;-96
2023/11/09 04:24:11;;;;;;;27.58;12.82;;;;;;;;;;6244257;22;19999;-96
2023/11/09 04:26:42;;;;;;;23.27;12.00;;;;;;;;;;6253800;22;20008;-96
2023/11/09 04:29:26;;;;;;;24.73;12.93;;;;;;;;;;6253693;22;19999;-96
2023/11/09 04:31:53;;;;;;;21.83;11.38;;;;;;;;;;6253256;22;20349;-95
2023/11/09 04:34:44;;;;;;;26.05;11.85;;;;;;;;;;6253281;22;20011;-96
2023/11/09 04:37:20;;;;;;;21.65;10.82;;;;;;;;;;6278727;22;20000;-96
2023/11/09 04:39:51;;;;;;;27.75;12.07;;;;;;;;;;6247254;23;20508;-96
2023/11/09 04:42:24;;;;;;;27.33;13.40;;;;;;;;;;6248280;23;20012;-96
2023/11/09 04:44:56;;;;;;;29.88;14.35;;;;;;;;;;6247775;23;20008;-95
2023/11/09 04:47:25;;;;;;;27.17;13.50;;;;;;;;;;6247733;23;20026;-96
2023/11/09 04:49:58;;;;;;;25.45;12.93;;;;;;;;;;6253741;23;20000;-94
2023/11/09 04:52:31;;;;;;;27.55;13.23;;;;;;;;;;6247768;23;20004;-94
2023/11/09 04:55:10;;;;;;;27.45;15.13;;;;;;;;;;6247188;23;20507;-94
2023/11/09 05:09:02;;;;;;;28.63;14.45;;;;;;;;;;6249292;23;20014;-95
2023/11/09 05:11:59;;;;;;;28.88;13.80;;;;;;;;;;6258458;22;20011;-95
2023/11/09 05:17:15;;;;;;;26.15;13.90;;;;;;;;;;6257296;22;20014;-93
2023/11/09 05:20:11;;;;;;;28.13;13.32;;;;;;;;;;6273451;22;20008;-95
2023/11/09 05:22:40;;;;;;;31.08;13.85;;;;;;;;;;6247959;22;20013;-94
2023/11/09 05:25:28;;;;;;;28.45;14.75;;;;;;;;;;6250708;23;20004;-94
2023/11/09 05:28:04;;;;;;;28.83;14.55;;;;;;;;;;6246574;23;20015;-96
2023/11/09 05:30:34;;;;;;;34.28;16.63;;;;;;;;;;6247394;23;20007;-95
2023/11/09 05:33:00;;;;;;;27.50;14.73;;;;;;;;;;6247389;23;20008;-95
2023/11/09 05:35:32;;;;;;;29.23;14.63;;;;;;;;;;6259262;23;20083;-93
2023/11/09 05:38:04;;;;;;;30.83;15.68;;;;;;;;;;6256835;23;20055;-95
2023/11/09 05:40:33;;;;;;;30.45;14.13;;;;;;;;;;6250469;23;20016;-95
2023/11/09 05:42:59;;;;;;;28.00;15.15;;;;;;;;;;6247267;23;20045;-94
2023/11/09 05:45:25;;;;;;;38.45;14.73;;;;;;;;;;6248372;23;20079;-94
2023/11/09 05:47:51;;;;;;;32.00;15.10;;;;;;;;;;6248443;23;20074;-95
2023/11/09 05:50:18;;;;;;;30.42;15.20;;;;;;;;;;6247469;23;20008;-96
2023/11/09 05:52:53;;;;;;;31.00;15.57;;;;;;;;;;6248061;23;20087;-96
2023/11/09 05:55:19;;;;;;;24.35;13.55;;;;;;;;;;6247962;23;20019;-95
2023/11/09 05:57:47;;;;;;;30.77;15.88;;;;;;;;;;6249063;23;20008;-95
2023/11/09 06:00:14;;;;;;;20.63;12.55;;;;;;;;;;6247139;23;20008;-95
2023/11/09 06:02:41;;;;;;;25.48;12.95;;;;;;;;;;6248313;23;20016;-95
2023/11/09 06:05:08;;;;;;;28.17;14.00;;;;;;;;;;6267511;22;20004;-95
2023/11/09 06:07:35;;;;;;;20.52;11.25;;;;;;;;;;6249826;23;20011;-96
2023/11/09 06:10:09;;;;;;;25.25;14.52;;;;;;;;;;6262121;22;20020;-96
2023/11/09 06:15:13;;;;;;;41.13;18.35;;;;;;;;;;6265346;22;20354;-93
2023/11/09 06:17:40;;;;;;;45.17;23.15;;;;;;;;;;6253028;22;20011;-96
2023/11/09 06:20:10;;;;;;;39.35;20.58;;;;;;;;;;6253335;22;20004;-96
2023/11/09 06:22:37;;;;;;;42.45;20.48;;;;;;;;;;6253716;22;20014;-96
2023/11/09 06:25:04;;;;;;;38.55;19.45;;;;;;;;;;6253280;22;20026;-96
2023/11/09 06:27:31;;;;;;;39.28;18.77;;;;;;;;;;6254091;22;20098;-95
2023/11/09 06:29:58;;;;;;;48.00;23.02;;;;;;;;;;6252507;22;20307;-95
2023/11/09 06:32:27;;;;;;;42.53;20.65;;;;;;;;;;6253191;22;20003;-96
2023/11/09 06:34:54;;;;;;;38.75;19.42;;;;;;;;;;6253715;22;20337;-95
2023/11/09 06:37:20;;;;;;;33.25;17.60;;;;;;;;;;6254003;22;20003;-96
2023/11/09 06:39:54;;;;;;;32.83;16.85;;;;;;;;;;6253514;22;20031;-96
2023/11/09 06:42:20;;;;;;;31.48;15.73;;;;;;;;;;6255156;22;20038;-95
2023/11/09 06:44:51;;;;;;;35.10;17.55;;;;;;;;;;6255698;22;20000;-96
2023/11/09 06:47:35;;;;;;;22.67;12.85;;;;;;;;;;6256628;22;20030;-96
2023/11/09 06:50:01;;;;;;;24.10;13.25;;;;;;;;;;6256874;22;20011;-96
2023/11/09 06:52:31;;;;;;;29.60;16.27;;;;;;;;;;6258153;22;20061;-96
2023/11/09 06:55:15;;;;;;;25.63;16.02;;;;;;;;;;6254365;22;20028;-96
2023/11/09 06:57:42;;;;;;;22.20;12.73;;;;;;;;;;6264221;22;19999;-96
2023/11/09 07:00:12;;;;;;;23.05;14.25;;;;;;;;;;6278608;22;19984;-94
2023/11/09 07:02:47;;;;;;;21.10;12.15;;;;;;;;;;6269767;22;20380;-96
2023/11/09 07:05:39;;;;;;;17.63;12.23;;;;;;;;;;6259058;22;20003;-96
2023/11/09 07:08:05;;;;;;;20.92;12.98;;;;;;;;;;6258200;22;20014;-96
2023/11/09 07:10:38;;;;;;;22.40;14.93;;;;;;;;;;6253826;22;20075;-96
2023/11/09 07:13:16;;;;;;;19.20;12.03;;;;;;;;;;6258071;22;20024;-95
2023/11/09 07:16:08;;;;;;;16.42;11.60;;;;;;;;;;6252050;22;20011;-95
2023/11/09 07:18:46;;;;;;;18.85;11.75;;;;;;;;;;6298032;22;20086;-96
2023/11/09 07:24:19;;;;;;;20.85;13.55;;;;;;;;;;6278526;22;20003;-94
2023/11/09 07:26:48;;;;;;;18.05;11.05;;;;;;;;;;6287136;22;20425;-96
2023/11/09 07:29:15;;;;;;;12.90;9.68;;;;;;;;;;6283407;22;20027;-96
2023/11/09 07:31:41;;;;;;;11.40;8.75;;;;;;;;;;6255917;22;20326;-95
2023/11/09 07:34:08;;;;;;;10.73;7.63;;;;;;;;;;6252985;22;20008;-96
2023/11/09 07:36:42;;;;;;;10.43;7.47;;;;;;;;;;6255741;22;20004;-96
2023/11/09 07:39:08;;;;;;;11.02;6.90;;;;;;;;;;6257290;22;20337;-93
2023/11/09 07:44:48;;;;;;;10.75;6.78;;;;;;;;;;6235010;22;20071;-95
2023/11/09 07:47:17;;;;;;;10.45;6.47;;;;;;;;;;6100415;23;20032;-94
2023/11/09 07:49:47;;;;;;;11.18;6.53;;;;;;;;;;6078052;23;20480;-96
2023/11/09 07:52:16;;;;;;;9.45;6.50;;;;;;;;;;6078091;23;20013;-93
2023/11/09 08:15:48;;;;;;;11.30;7.13;;;;;;;;;;6268607;22;20015;-95
2023/11/09 08:27:40;;;;;;;9.18;6.93;;;;;;;;;;6281963;22;20020;-94
2023/11/09 08:30:09;;;;;;;9.55;6.00;;;;;;;;;;6253969;22;20429;-93
2023/11/09 08:32:46;;;;;;;7.90;5.60;;;;;;;;;;6256312;22;20000;-94
2023/11/09 08:48:33;;;;;;;8.20;6.53;;;;;;;;;;6258700;22;20027;-94
2023/11/09 08:51:02;;;;;;;8.20;5.50;;;;;;;;;;6252787;22;20004;-95
2023/11/09 08:53:32;;;;;;;8.73;5.28;;;;;;;;;;6251425;22;20007;-95
2023/11/09 08:59:06;;;;;;;6.93;5.32;;;;;;;;;;6186927;23;20068;-95
2023/11/09 09:01:36;;;;;;;7.88;5.28;;;;;;;;;;6161694;23;20080;-95
2023/11/09 09:04:05;;;;;;;7.95;5.22;;;;;;;;;;6166751;23;20028;-95
2023/11/09 09:06:31;;;;;;;7.72;5.10;;;;;;;;;;6173510;23;20029;-95
2023/11/09 09:09:00;;;;;;;8.48;5.20;;;;;;;;;;6171780;23;20005;-94
2023/11/09 09:11:27;;;;;;;8.18;5.35;;;;;;;;;;6198669;23;20043;-95
2023/11/09 09:14:22;;;;;;;7.20;5.10;;;;;;;;;;6210605;22;21165;-95
2023/11/09 09:16:48;;;;;;;8.38;4.95;;;;;;;;;;6226299;23;20472;-95
2023/11/09 09:19:16;;;;;;;6.72;4.90;;;;;;;;;;6224894;23;20000;-95
2023/11/09 09:24:18;;;;;;;7.53;4.53;;;;;;;;;;6245642;22;20039;-96
2023/11/09 09:26:50;;;;;;;6.32;4.40;;;;;;;;;;6225553;23;20000;-96
2023/11/09 09:29:19;;;;;;;7.05;4.00;;;;;;;;;;6226986;23;20091;-96
2023/11/09 09:31:50;;;;;;;6.05;4.22;;;;;;;;;;6227792;23;20453;-96
2023/11/09 09:34:34;;;;;;;5.90;4.18;;;;;;;;;;6264314;23;20008;-94
2023/11/09 09:37:01;;;;;;;7.18;4.40;;;;;;;;;;6236862;23;20004;-96
2023/11/09 09:39:28;;;;;;;6.50;4.93;;;;;;;;;;6232128;23;20008;-96
2023/11/09 09:41:58;;;;;;;5.60;4.20;;;;;;;;;;6230263;23;20008;-96
2023/11/09 09:44:26;;;;;;;7.03;4.72;;;;;;;;;;6224927;23;20046;-94
2023/11/09 09:46:55;;;;;;;6.32;4.57;;;;;;;;;;6222320;23;20004;-95
2023/11/09 09:49:22;;;;;;;9.45;4.85;;;;;;;;;;6224962;23;20007;-94
2023/11/09 09:51:49;;;;;;;7.13;4.70;;;;;;;;;;6224201;23;20008;-94
2023/11/09 09:54:18;;;;;;;10.10;5.00;;;;;;;;;;6250197;23;20062;-95
2023/11/09 09:56:47;;;;;;;9.93;4.68;;;;;;;;;;6221821;23;20441;-95
2023/11/09 09:59:14;;;;;;;7.07;4.50;;;;;;;;;;6221875;23;20000;-96
2023/11/09 10:01:46;;;;;;;7.47;4.20;;;;;;;;;;6222400;23;20016;-94
2023/11/09 10:04:14;;;;;;;7.27;3.80;;;;;;;;;;6223701;23;20023;-94
2023/11/09 10:06:41;;;;;;;5.78;4.03;;;;;;;;;;6222423;23;20236;-93
2023/11/09 10:09:08;;;;;;;6.25;4.20;;;;;;;;;;6223276;23;20022;-95
2023/11/09 10:11:39;;;;;;;6.47;4.30;;;;;;;;;;6223206;23;20000;-95
2023/11/09 10:14:06;;;;;;;6.57;4.40;;;;;;;;;;6223063;23;20008;-96
2023/11/09 10:16:33;;;;;;;7.80;4.30;;;;;;;;;;6224104;23;20000;-95
2023/11/09 10:19:04;;;;;;;8.38;4.25;;;;;;;;;;6223289;23;20633;-95
2023/11/09 10:21:30;;;;;;;7.32;4.00;;;;;;;;;;6240553;22;20003;-95
2023/11/09 10:24:03;;;;;;;8.75;4.53;;;;;;;;;;6248610;22;20004;-96
2023/11/09 10:26:55;;;;;;;9.18;4.43;;;;;;;;;;6227941;23;20063;-95
2023/11/09 10:29:27;;;;;;;7.60;5.35;;;;;;;;;;6169487;23;20005;-94
2023/11/09 10:31:53;;;;;;;6.45;5.15;;;;;;;;;;6187100;23;20009;-94
2023/11/09 10:37:13;;;;;;;8.57;4.43;;;;;;;;;;6185985;23;20084;-95
2023/11/09 10:39:42;;;;;;;6.68;4.25;;;;;;;;;;6189872;23;20009;-95
2023/11/09 10:42:11;;;;;;;7.75;4.65;;;;;;;;;;6191567;23;20100;-94
2023/11/09 10:48:17;;;;;;;10.25;4.40;;;;;;;;;;6071997;23;20014;-96
2023/11/09 10:51:08;;;;;;;8.10;5.53;;;;;;;;;;6190760;23;20005;-96
2023/11/09 10:53:41;;;;;;;6.25;4.82;;;;;;;;;;6170839;23;19989;-95
2023/11/09 10:56:10;;;;;;;11.38;5.47;;;;;;;;;;6174766;23;20001;-95
2023/11/09 10:58:56;;;;;;;7.43;5.43;;;;;;;;;;6165927;23;19997;-93
2023/11/09 11:07:52;;;;;;;10.02;5.65;;;;;;;;;;6243007;23;20736;-96
2023/11/09 11:10:48;;;;;;;;;;;;;;;;;;;;;
2023/11/09 11:13:22;;;;;;;9.73;5.57;;;;;;;;;;6171895;23;20088;-95
2023/11/09 11:16:10;;;;;;;6.80;5.07;;;;;;;;;;6161622;23;20021;-95
2023/11/09 11:25:14;;;;;;;8.23;4.82;;;;;;;;;;5926530;24;20024;-95
2023/11/09 11:28:11;;;;;;;6.95;4.95;;;;;;;;;;5961950;24;20012;-94
2023/11/09 11:40:19;;;;;;;;;;;;;;;;;;;;;
2023/11/09 11:42:46;;;;;;;9.02;5.05;;;;;;;;;;5940175;24;20522;-95
2023/11/09 11:45:17;;;;;;;7.88;5.28;;;;;;;;;;5962556;24;20447;-96
2023/11/09 11:47:59;;;;;;;7.47;5.05;;;;;;;;;;5966128;24;20008;-95
2023/11/09 11:50:30;;;;;;;6.35;4.57;;;;;;;;;;6070504;23;20082;-96
2023/11/09 11:53:01;;;;;;;6.85;4.65;;;;;;;;;;6183553;23;20024;-95
2023/11/09 11:55:28;;;;;;;9.15;4.70;;;;;;;;;;6192742;23;20004;-95
2023/11/09 11:58:15;;;;;;;7.35;4.60;;;;;;;;;;6169316;23;20044;-94
2023/11/09 12:00:46;;;;;;;7.55;4.82;;;;;;;;;;6193831;23;20011;-95
2023/11/09 12:03:13;;;;;;;9.25;5.15;;;;;;;;;;6192149;23;20017;-95
2023/11/09 12:05:43;;;;;;;8.88;4.70;;;;;;;;;;6216018;23;20031;-96
2023/11/09 12:08:12;;;;;;;7.38;4.60;;;;;;;;;;6213482;23;20011;-95
2023/11/09 12:10:50;;;;;;;7.80;5.30;;;;;;;;;;6192927;23;20009;-93
2023/11/09 12:13:35;;;;;;;6.65;4.72;;;;;;;;;;6192535;23;20001;-92
2023/11/09 12:16:02;;;;;;;10.82;5.88;;;;;;;;;;6194356;23;20083;-92
2023/11/09 12:18:29;;;;;;;7.75;5.10;;;;;;;;;;6195381;23;20005;-93
2023/11/09 12:21:02;;;;;;;7.75;4.35;;;;;;;;;;6207130;23;20373;-95
2023/11/09 12:23:34;;;;;;;6.38;4.75;;;;;;;;;;6198099;23;20091;-93
2023/11/09 12:26:07;;;;;;;7.85;4.55;;;;;;;;;;6222467;23;20039;-93
2023/11/09 12:28:37;;;;;;;;;;;;;;;;;;6222743;23;20004;-95
2023/11/09 12:31:03;;;;;;;6.13;4.10;;;;;;;;;;6222825;23;19930;-95
2023/11/09 12:33:34;;;;;;;5.70;4.28;;;;;;;;;;6222580;23;20008;-94
2023/11/09 12:36:07;;;;;;;7.28;4.63;;;;;;;;;;6222962;23;20426;-94
2023/11/09 12:38:39;;;;;;;7.60;4.18;;;;;;;;;;6214784;23;20004;-94
2023/11/09 12:41:16;;;;;;;7.80;4.25;;;;;;;;;;6222994;23;20032;-94
2023/11/09 12:43:42;;;;;;;8.13;4.28;;;;;;;;;;6220546;23;20035;-95
2023/11/09 12:46:15;;;;;;;7.45;4.28;;;;;;;;;;6222323;23;20032;-95
2023/11/09 12:48:48;;;;;;;6.50;3.83;;;;;;;;;;6222606;23;20012;-95
2023/11/09 12:51:21;;;;;;;6.53;4.10;;;;;;;;;;6224091;23;20004;-95
2023/11/09 12:53:51;;;;;;;5.80;4.25;;;;;;;;;;6220541;23;20008;-96
2023/11/09 12:56:22;;;;;;;5.85;4.18;;;;;;;;;;6214611;23;20448;-95
2023/11/09 12:58:57;;;;;;;8.85;4.85;;;;;;;;;;6229875;23;20008;-95
2023/11/09 13:01:28;;;;;;;5.40;4.13;;;;;;;;;;6234771;23;20447;-96
2023/11/09 13:03:56;;;;;;;6.55;3.80;;;;;;;;;;6223268;23;20035;-95
2023/11/09 13:06:23;;;;;;;5.18;3.58;;;;;;;;;;6222568;23;20008;-95
2023/11/09 13:08:50;;;;;;;6.50;3.70;;;;;;;;;;6226269;23;20008;-95
2023/11/09 13:11:22;;;;;;;5.22;3.75;;;;;;;;;;6224509;23;20007;-95
2023/11/09 13:14:08;;;;;;;4.65;3.28;;;;;;;;;;6225012;23;20012;-95
2023/11/09 13:16:38;;;;;;;6.95;3.53;;;;;;;;;;6224117;23;20004;-94
2023/11/09 13:19:04;;;;;;;6.28;3.50;;;;;;;;;;6249959;23;20039;-95
2023/11/09 13:21:48;;;;;;;6.32;3.78;;;;;;;;;;6229582;23;20008;-94
2023/11/09 13:24:28;;;;;;;6.40;4.00;;;;;;;;;;6201092;23;20020;-96
2023/11/09 13:27:11;;;;;;;7.97;3.40;;;;;;;;;;6164085;23;20005;-96
2023/11/09 13:29:43;;;;;;;7.05;3.38;;;;;;;;;;6174358;23;20009;-95
2023/11/09 13:32:15;;;;;;;6.30;4.05;;;;;;;;;;6167903;23;20016;-94
2023/11/09 13:35:24;;;;;;;6.38;3.35;;;;;;;;;;6167579;23;20008;-96
2023/11/09 13:37:55;;;;;;;5.65;3.08;;;;;;;;;;6194197;23;20005;-96
2023/11/09 13:42:47;;;;;;;5.88;3.10;;;;;;;;;;6189595;23;20020;-94
2023/11/09 13:45:45;;;;;;;;;;;;;;;;;;;;;
2023/11/09 13:48:22;;;;;;;8.68;3.85;;;;;;;;;;6224600;22;20013;-95
2023/11/09 13:50:53;;;;;;;6.50;3.45;;;;;;;;;;6248359;22;20035;-95
2023/11/09 13:58:56;;;;;;;5.88;3.60;;;;;;;;;;6143839;23;20005;-94
2023/11/09 14:04:37;;;;;;;5.00;2.90;;;;;;;;;;6254844;23;20350;-96
2023/11/09 14:07:53;;;;;;;;;;;;;;;;;;6230523;23;20001;-96
2023/11/09 14:09:53;;;;;;;6.63;3.20;;;;;;;;;;6236669;23;19899;-96
2023/11/09 14:16:02;;;;;;;8.65;3.28;;;;;;;;;;6204882;23;20004;-96
2023/11/09 14:20:59;;;;;;;13.05;3.97;;;;;;;;;;6261784;23;20019;-95
2023/11/09 14:23:37;;;;;;;8.27;3.17;;;;;;;;;;6224782;23;20318;-96
2023/11/09 14:26:26;;;;;;;6.03;3.22;;;;;;;;;;6246596;23;20004;-96
2023/11/09 14:29:01;;;;;;;7.85;3.72;;;;;;;;;;6227970;23;20015;-95
2023/11/09 14:31:31;;;;;;;8.55;3.40;;;;;;;;;;6226110;23;20063;-96
2023/11/09 14:33:59;;;;;;;9.43;4.47;;;;;;;;;;6231234;22;20020;-95
2023/11/09 14:36:31;;;;;;;7.63;4.00;;;;;;;;;;6256123;22;20015;-95
2023/11/09 14:42:24;;;;;;;10.80;3.65;;;;;;;;;;6279945;22;20016;-96
2023/11/09 14:44:53;;;;;;;7.97;3.40;;;;;;;;;;6256393;22;20094;-95
2023/11/09 14:47:25;;;;;;;6.40;3.63;;;;;;;;;;6256771;22;20000;-96
2023/11/09 14:49:53;;;;;;;7.28;4.35;;;;;;;;;;6255610;22;20007;-96
2023/11/09 15:01:35;;;;;;;6.85;2.95;;;;;;;;;;6205147;22;20031;-96
2023/11/09 15:04:09;;;;;;;8.02;3.67;;;;;;;;;;6227596;23;20024;-96
2023/11/09 15:06:35;;;;;;;6.80;3.90;;;;;;;;;;6228412;23;20333;-96
2023/11/09 15:09:17;;;;;;;9.75;3.53;;;;;;;;;;6230112;23;20035;-96
2023/11/09 15:12:05;;;;;;;9.02;3.55;;;;;;;;;;6232314;23;20004;-96
2023/11/09 15:14:38;;;;;;;6.28;3.58;;;;;;;;;;6248460;22;20016;-95
2023/11/09 15:17:19;;;;;;;;;;;;;;;;;;;;;
2023/11/09 15:23:15;;;;;;;;;;;;;;;;;;;;;
2023/11/09 15:25:47;;;;;;;16.35;6.63;;;;;;;;;;6286713;22;20031;-94
2023/11/09 15:28:23;;;;;;;16.20;6.50;;;;;;;;;;6257018;22;20003;-94
2023/11/09 15:30:59;;;;;;;;;;;;;;;;;;;;;
2023/11/09 15:33:48;;;;;;;15.40;6.50;;;;;;;;;;6239131;22;20039;-94
2023/11/09 15:36:16;;;;;;;12.50;7.00;;;;;;;;;;6283861;22;20333;-94
2023/11/09 15:38:42;;;;;;;16.05;7.43;;;;;;;;;;6257091;22;20000;-96
2023/11/09 15:41:13;;;;;;;14.02;7.45;;;;;;;;;;6257933;22;20433;-93
2023/11/09 15:43:48;;;;;;;14.35;6.93;;;;;;;;;;6256471;22;20425;-95
2023/11/09 15:46:32;;;;;;;10.63;5.82;;;;;;;;;;6257289;22;20010;-95
2023/11/09 15:48:59;;;;;;;11.13;4.60;;;;;;;;;;6257341;22;20003;-95
2023/11/09 15:51:34;;;;;;;9.13;4.43;;;;;;;;;;6257788;22;20000;-95
2023/11/09 15:54:12;;;;;;;8.18;3.45;;;;;;;;;;6257004;22;20138;-95
2023/11/09 15:56:41;;;;;;;9.38;3.75;;;;;;;;;;6261169;22;20039;-95
2023/11/09 16:01:53;;;;;;;8.75;3.90;;;;;;;;;;6274159;22;20020;-96
2023/11/09 16:04:33;;;;;;;;;;;;;;;;;;;;;
2023/11/09 16:10:18;;;;;;;4.28;3.13;;;;;;;;;;6202938;22;20480;-96
2023/11/09 16:12:53;;;;;;;9.75;3.72;;;;;;;;;;6256883;22;20452;-95
2023/11/09 16:15:21;;;;;;;6.07;3.00;;;;;;;;;;6256668;22;20020;-96
2023/11/09 16:17:53;;;;;;;7.40;3.28;;;;;;;;;;6256149;22;20004;-95
2023/11/09 16:20:48;;;;;;;9.57;5.00;;;;;;;;;;6256324;22;20029;-96
2023/11/09 16:26:28;;;;;;;8.18;4.72;;;;;;;;;;6266483;22;20117;-95
2023/11/09 16:29:01;;;;;;;11.15;4.45;;;;;;;;;;6259566;22;20093;-95
2023/11/09 16:31:39;;;;;;;10.95;5.43;;;;;;;;;;6261211;22;20007;-95
2023/11/09 16:34:12;;;;;;;9.48;4.20;;;;;;;;;;6255600;22;20003;-94
2023/11/09 16:36:39;;;;;;;6.90;3.95;;;;;;;;;;6256430;22;20004;-95
2023/11/09 16:39:14;;;;;;;9.15;4.15;;;;;;;;;;6256255;22;20004;-94
2023/11/09 16:41:48;;;;;;;7.35;3.88;;;;;;;;;;6256268;22;20035;-96
2023/11/09 16:44:24;;;;;;;9.73;3.75;;;;;;;;;;6257488;22;20003;-95
2023/11/09 16:50:03;;;;;;;8.77;3.60;;;;;;;;;;6284764;22;20004;-95
2023/11/09 16:52:46;;;;;;;7.72;3.53;;;;;;;;;;6259737;22;20003;-95
2023/11/09 16:55:21;;;;;;;9.15;4.40;;;;;;;;;;6262232;22;20034;-96
2023/11/09 16:57:58;;;;;;;;;;;;;;;;;;;;;
2023/11/09 17:00:45;;;;;;;11.50;6.13;;;;;;;;;;6239202;22;20034;-95
2023/11/09 17:03:21;;;;;;;16.02;5.60;;;;;;;;;;6280833;22;20012;-95
2023/11/09 17:05:47;;;;;;;10.35;5.22;;;;;;;;;;6257384;22;20008;-95
2023/11/09 17:08:19;;;;;;;11.15;6.03;;;;;;;;;;6256913;22;20006;-95
2023/11/09 17:16:27;;;;;;;9.13;3.55;;;;;;;;;;6253948;22;20000;-96
2023/11/09 17:18:58;;;;;;;9.60;3.40;;;;;;;;;;6253150;22;20912;-95
2023/11/09 17:22:03;;;;;;;;;;;;;;;;;;;;;
2023/11/09 17:30:36;;;;;;;7.40;3.42;;;;;;;;;;6135651;23;20010;-96
2023/11/09 17:44:01;;;;;;;10.98;5.63;;;;;;;;;;6211322;22;20016;-96
2023/11/09 17:57:44;;;;;;;;;;;;;;;;;;;;;
2023/11/09 18:02:53;;;;;;;10.23;5.80;;;;;;;;;;6284844;22;20024;-95
2023/11/09 18:15:49;;;;;;;10.63;6.40;;;;;;;;;;6261076;22;20050;-95
2023/11/09 18:26:29;;;;;;;14.10;8.55;;;;;;;;;;6263649;23;20077;-96
2023/11/09 18:34:11;;;;;;;11.15;7.13;;;;;;;;;;6251040;22;20031;-94
2023/11/09 18:37:00;;;;;;;10.85;7.30;;;;;;;;;;6261226;23;20055;-93
2023/11/09 18:39:32;;;;;;;13.27;7.55;;;;;;;;;;6260210;23;20004;-93